MRLBMROC

Guest
Details From MRLB - Daniel Oduber Quiros Intl
To MROC - San Jose Juan Santamaria Intl
Flight Number -
Tags Generated
Created
Modified
Stats Distance 87 nm / 161 km
Max Altitude 0 ft / 0 m
Waypoints 2
Social Downloads 5
Likes 0
Share VATSIM

Download

Looking for another format? Having issues loading an existing format? Contact us
Advertisement - Login to hide

Notes

Generated

Route

MRLB MROC

ID Type Via Altitude (ft/m) Position (lat/lon) Dist (leg/tot) Name
O MRLB APT - 0 / 0 10.58905 / -85.55629 - / 0 nm
O MROC APT - 0 / 0 9.98900 / -84.22186 86 / 86 nm

Altitude Profile

Advertisement - Login to hide

MRLB

Details ICAO MRLB (LIR)
Name Daniel Oduber Quiros Intl
Region Costa Rica
Timezone America/Costa_Rica (UTC-6.0)
Stats Elevation 270 ft / 82 m (AMSL)
Location 10.593400° -85.544500°
Runways 1
Magnetic Variation 1.247° W

METAR

MRLB 200400Z 17002KT 9999 FEW020 BKN100 25/24 A2986 NOSIG

Decode

TAF

MRLB 192300Z 2000/2024 17009KT 9999 SCT020 TX33/2019Z TN23/2011Z TEMPO 2000/2004 5000 RA SCT020CB BECMG 2003/2006 09006KT BECMG 2014/2017 27010KT TEMPO 2020/2024 5000 TSRA SCT015CB

Decode

Departure Runways

ID Width Length Bearing (true/mag) Surface Threshold Overrun Markings Lighting
07 151 ft / 46 m 9,031 ft / 2,753 m 70.02° / 71.26° ASPHALT 0 ft / 0 m 0 ft / 0 m PREC-APP EDGE THRESHOLD CALVERT REIL-OMNI
25 151 ft / 46 m 9,031 ft / 2,753 m 250.02° / 251.27° ASPHALT 0 ft / 0 m 0 ft / 0 m PREC-APP EDGE THRESHOLD CALVERT REIL-OMNI

MROC

Details ICAO MROC (SJO)
Name Juan Santamaria Intl
Region Costa Rica
Timezone America/Costa_Rica (UTC-6.0)
Stats Elevation 3,020 ft / 920 m (AMSL)
Location 9.993870° -84.208900°
Runways 1
Magnetic Variation 1.926° W

METAR

MROC 200400Z 05004KT 030V090 CAVOK 22/20 A3001 NOSIG

Decode

TAF

MROC 192300Z 2000/2024 09006KT 9999 SCT015 TX29/2019Z TN19/2011Z TEMPO 2000/2004 24005KT 5000 RA BR BKN015 BECMG 2014/2017 25010KT TEMPO 2020/2024 -TSRA SCT015CB BKN025

Decode

Destination Runways

ID Width Length Bearing (true/mag) Surface Threshold Overrun Markings Lighting
07 148 ft / 45 m 9,888 ft / 3,014 m 69.16° / 71.09° ASPHALT 0 ft / 0 m 190 ft / 58 m PREC-APP EDGE THRESHOLD MALS REIL-OMNI
25 148 ft / 45 m 9,888 ft / 3,014 m 249.17° / 251.09° ASPHALT 1,614 ft / 492 m 0 ft / 0 m PREC-APP EDGE THRESHOLD REIL-OMNI

Approach Navaids

Runway Type Ident Frequency Range Bearing (true/mag) Slope Elevation
07 GS IOCO 109.50 MHz 10 nm / 19 km 69.83° / 71.75 ° 3.00° 930 ft / 283 m (AMSL)
07 DME IOCO 109.50 MHz 18 nm / 33 km - - 930 ft / 283 m (AMSL)
07 OM OM - - 68.91° / 70.84 ° - 3,021 ft / 921 m (AMSL)
07 LOC-ILS IOCO 109.50 MHz 18 nm / 33 km 68.89° / 70.82 ° - 930 ft / 283 m (AMSL)

Popular Alternatives